Time;durP1;ratioP1;P1;durP2;ratioP2;P2;SDS_P1;SDS_P2;PMS_P1;PMS_P2;Temp;Humidity;BMP_temperature;BMP_pressure;BME280_temperature;BME280_humidity;BME280_pressure;Samples;Min_cycle;Max_cycle;Signal;HPM_P1;HPM_P2
2022/03/16 00:01:28;;;;;;;12.82;6.57;;;;;;;-3.57;45.87;101729.84;5071404;28;20043;-70
2022/03/16 00:03:53;;;;;;;12.20;5.18;;;;;;;-3.49;45.64;101736.91;5071369;28;20462;-70
2022/03/16 00:06:19;;;;;;;11.25;6.22;;;;;;;-3.49;45.76;101728.16;5071608;28;20488;-71
2022/03/16 00:08:44;;;;;;;12.98;6.32;;;;;;;-3.51;45.88;101735.13;5053839;28;20036;-71
2022/03/16 00:11:10;;;;;;;12.32;7.03;;;;;;;-3.70;46.15;101700.94;5070874;28;20064;-71
2022/03/16 00:13:35;;;;;;;11.43;6.63;;;;;;;-3.56;46.16;101740.31;5071336;28;20055;-71
2022/03/16 00:16:01;;;;;;;13.05;6.80;;;;;;;-3.57;46.37;101740.31;5053606;28;20029;-70
2022/03/16 00:18:26;;;;;;;11.20;6.70;;;;;;;-3.62;46.74;101741.16;5071200;28;20036;-70
2022/03/16 00:20:52;;;;;;;10.60;5.60;;;;;;;-3.91;46.84;101694.63;5052967;28;20382;-70
2022/03/16 00:23:17;;;;;;;10.52;5.50;;;;;;;-3.85;46.94;101703.44;5070785;28;20058;-70
2022/03/16 00:25:43;;;;;;;10.77;5.75;;;;;;;-3.64;46.38;101740.25;5070721;28;20025;-69
2022/03/16 00:28:09;;;;;;;10.90;5.80;;;;;;;-3.71;46.99;101727.97;5070801;28;20025;-63
2022/03/16 00:30:38;;;;;;;12.73;5.97;;;;;;;-3.75;46.63;101726.19;5053112;28;20484;-68
2022/03/16 00:33:04;;;;;;;13.35;6.07;;;;;;;-3.92;46.93;101698.13;5070898;28;20049;-70
2022/03/16 00:35:30;;;;;;;15.38;5.88;;;;;;;-3.94;47.23;101693.75;5070568;28;20051;-70
2022/03/16 00:37:56;;;;;;;9.25;5.38;;;;;;;-3.98;47.15;101703.28;5070667;28;20101;-71
2022/03/16 00:40:21;;;;;;;10.98;6.10;;;;;;;-3.85;46.88;101713.91;5070705;28;20062;-70
2022/03/16 00:42:47;;;;;;;12.80;5.55;;;;;;;-3.66;46.47;101747.22;5070899;28;20103;-70
2022/03/16 00:45:12;;;;;;;9.23;5.80;;;;;;;-3.69;46.92;101747.19;5070901;28;20020;-71
2022/03/16 00:47:38;;;;;;;9.52;5.82;;;;;;;-3.68;46.85;101753.31;5070945;28;20032;-71
2022/03/16 00:50:04;;;;;;;11.30;6.10;;;;;;;-3.77;47.03;101746.25;5053472;28;20116;-71
2022/03/16 00:52:30;;;;;;;11.27;5.95;;;;;;;-3.82;47.48;101746.19;5070674;28;20065;-71
2022/03/16 00:54:55;;;;;;;11.05;6.00;;;;;;;-3.75;47.02;101760.22;5070828;28;20037;-69
2022/03/16 00:57:21;;;;;;;14.02;6.25;;;;;;;-3.70;46.62;101774.22;5071057;28;20135;-71
2022/03/16 00:59:46;;;;;;;12.38;6.63;;;;;;;-3.74;46.84;101748.88;5070557;28;20055;-70
2022/03/16 01:02:12;;;;;;;11.20;6.40;;;;;;;-3.80;47.04;101752.31;5070537;28;20021;-69
2022/03/16 01:04:38;;;;;;;13.50;7.68;;;;;;;-3.72;47.14;101757.63;5071256;28;20059;-70
2022/03/16 01:07:04;;;;;;;11.80;6.50;;;;;;;-3.81;47.15;101758.41;5071062;28;20031;-69
2022/03/16 01:09:29;;;;;;;10.93;5.93;;;;;;;-3.91;47.66;101751.34;5070735;28;20436;-70
2022/03/16 01:11:55;;;;;;;10.63;6.05;;;;;;;-3.88;47.54;101746.13;5052363;28;20059;-71
2022/03/16 01:14:20;;;;;;;9.50;6.47;;;;;;;-3.84;48.02;101765.38;5053067;28;20035;-69
2022/03/16 01:16:46;;;;;;;9.00;5.60;;;;;;;-3.77;46.98;101764.56;5035961;28;20048;-70
2022/03/16 01:19:15;;;;;;;12.85;6.45;;;;;;;-4.04;47.51;101719.81;5052165;28;20445;-61
2022/03/16 01:21:44;;;;;;;13.98;6.53;;;;;;;-3.83;47.53;101754.03;5053203;28;20032;-69
2022/03/16 01:24:10;;;;;;;12.27;6.95;;;;;;;-3.89;47.83;101765.31;5053172;28;20060;-67
2022/03/16 01:26:36;;;;;;;10.52;6.18;;;;;;;-3.89;47.48;101757.47;5070019;28;20431;-68
2022/03/16 01:29:01;;;;;;;13.57;6.30;;;;;;;-3.91;47.66;101756.56;5070139;28;20898;-68
2022/03/16 01:31:27;;;;;;;12.18;6.47;;;;;;;-3.99;47.59;101753.88;5070714;28;20049;-69
2022/03/16 01:33:53;;;;;;;14.73;5.63;;;;;;;-3.96;47.49;101763.50;5070724;28;20048;-69
2022/03/16 01:36:18;;;;;;;11.48;6.20;;;;;;;-4.06;47.77;101758.16;5069812;28;20482;-71
2022/03/16 01:38:44;;;;;;;9.73;6.20;;;;;;;-4.03;48.07;101765.19;5052131;28;20024;-68
2022/03/16 01:41:09;;;;;;;9.68;5.93;;;;;;;-4.03;47.63;101762.56;5070960;28;20112;-70
2022/03/16 01:43:35;;;;;;;11.07;6.13;;;;;;;-3.97;47.87;101759.13;5052987;28;20028;-70
2022/03/16 01:46:01;;;;;;;10.77;6.22;;;;;;;-4.05;47.67;101759.06;5071290;28;20028;-70
2022/03/16 01:48:26;;;;;;;9.80;5.68;;;;;;;-4.06;48.11;101755.53;5073177;28;20047;-69
2022/03/16 01:50:54;;;;;;;10.85;5.65;;;;;;;-3.98;47.72;101771.34;5073985;28;20032;-70
2022/03/16 01:53:20;;;;;;;8.30;5.72;;;;;;;-4.05;48.39;101766.91;5074302;28;20466;-70
2022/03/16 01:55:47;;;;;;;9.68;5.85;;;;;;;-4.10;48.32;101755.47;5056000;28;20089;-69
2022/03/16 01:58:13;;;;;;;10.18;6.03;;;;;;;-4.16;48.39;101763.25;5074054;28;20374;-71
2022/03/16 02:00:42;;;;;;;14.55;6.70;;;;;;;-4.07;48.45;101771.25;5074146;28;20039;-68
2022/03/16 02:03:08;;;;;;;9.88;6.55;;;;;;;-4.57;48.45;101697.44;5056279;28;20067;-71
2022/03/16 02:05:34;;;;;;;18.33;7.78;;;;;;;-4.16;48.80;101763.25;5073573;28;20139;-70
2022/03/16 02:08:01;;;;;;;14.98;6.78;;;;;;;-4.08;48.22;101766.88;5073405;28;20165;-72
2022/03/16 02:10:27;;;;;;;12.45;7.40;;;;;;;-4.22;48.98;101745.75;5073325;28;20094;-73
2022/03/16 02:12:52;;;;;;;10.13;6.20;;;;;;;-4.16;48.60;101761.53;5055792;28;20470;-72
2022/03/16 02:15:21;;;;;;;11.68;6.80;;;;;;;-4.13;48.45;101765.91;5055058;28;20359;-70
2022/03/16 02:17:46;;;;;;;12.82;7.28;;;;;;;-4.24;48.92;101747.47;5073343;28;20036;-70
2022/03/16 02:20:12;;;;;;;12.10;6.88;;;;;;;-4.27;49.26;101744.81;5073299;28;20436;-72
2022/03/16 02:22:59;;;;;;;12.07;6.20;;;;;;;-4.16;48.45;101766.78;5072730;28;20040;-72
2022/03/16 02:25:25;;;;;;;11.77;7.07;;;;;;;-4.21;49.04;101764.09;5038224;28;20032;-72
2022/03/16 02:27:52;;;;;;;10.23;6.53;;;;;;;-4.27;49.47;101768.38;5072954;28;20111;-71
2022/03/16 02:30:28;;;;;;;12.43;7.10;;;;;;;-4.55;49.65;101719.25;5073141;28;20070;-72
2022/03/16 02:32:55;;;;;;;13.35;7.45;;;;;;;-4.31;49.21;101757.00;5072973;28;20120;-73
2022/03/16 02:35:21;;;;;;;15.88;7.47;;;;;;;-4.35;49.61;101758.69;5073086;28;20033;-72
2022/03/16 02:37:47;;;;;;;15.57;7.35;;;;;;;-4.21;49.36;101761.47;5073252;28;20036;-70
2022/03/16 02:40:18;;;;;;;15.48;7.57;;;;;;;-4.18;49.16;101764.13;5055159;28;20032;-71
2022/03/16 02:42:43;;;;;;;13.68;6.80;;;;;;;-4.20;48.79;101760.63;5055065;28;20462;-70
2022/03/16 02:45:09;;;;;;;14.52;6.85;;;;;;;-4.21;49.11;101771.94;5038661;28;20032;-73
2022/03/16 02:47:37;;;;;;;15.35;7.07;;;;;;;-4.31;49.38;101762.25;5072616;28;20044;-73
2022/03/16 02:50:03;;;;;;;13.52;7.07;;;;;;;-4.24;49.42;101764.06;5072825;28;20020;-74
2022/03/16 02:52:28;;;;;;;11.77;6.30;;;;;;;-4.30;49.23;101758.75;5055251;28;20386;-73
2022/03/16 02:54:54;;;;;;;16.92;7.35;;;;;;;-4.27;49.51;101764.03;5054562;28;20044;-71
2022/03/16 02:57:20;;;;;;;13.07;7.07;;;;;;;-4.25;49.28;101785.84;5037470;28;20186;-72
2022/03/16 02:59:45;;;;;;;12.52;6.95;;;;;;;-4.30;49.89;101769.22;5072997;28;20029;-72
2022/03/16 03:02:11;;;;;;;13.52;7.18;;;;;;;-4.31;50.13;101777.94;5072797;28;20055;-72
2022/03/16 03:04:38;;;;;;;15.38;7.40;;;;;;;-4.37;50.16;101762.13;5072430;28;20037;-72
2022/03/16 03:07:04;;;;;;;12.88;7.13;;;;;;;-4.58;49.81;101726.16;5072428;28;20033;-73
2022/03/16 03:09:29;;;;;;;16.08;7.47;;;;;;;-4.36;49.77;101756.94;5038448;28;20029;-73
2022/03/16 03:11:56;;;;;;;14.27;7.75;;;;;;;-4.34;49.77;101767.41;5072504;28;20024;-74
2022/03/16 03:14:22;;;;;;;15.57;7.60;;;;;;;-4.38;50.42;101771.75;5072009;28;20488;-72
2022/03/16 03:16:47;;;;;;;11.77;6.90;;;;;;;-4.32;50.18;101789.25;5073004;28;20032;-74
2022/03/16 03:19:13;;;;;;;13.82;6.97;;;;;;;-4.37;49.68;101785.69;5073010;28;20040;-72
2022/03/16 03:21:38;;;;;;;12.30;7.00;;;;;;;-4.32;50.12;101797.97;5071967;28;20043;-73
2022/03/16 03:24:04;;;;;;;13.52;7.88;;;;;;;-4.62;49.80;101740.91;5071903;28;20036;-74
2022/03/16 03:26:30;;;;;;;15.93;7.95;;;;;;;-4.34;49.85;101789.22;5037809;28;20078;-74
2022/03/16 03:28:56;;;;;;;12.15;6.88;;;;;;;-4.37;49.95;101783.94;5054606;28;20036;-74
2022/03/16 03:31:21;;;;;;;12.93;8.07;;;;;;;-4.40;50.10;101785.63;5054948;28;20106;-73
2022/03/16 03:33:47;;;;;;;15.93;7.50;;;;;;;-4.37;50.46;101794.41;5055520;28;20055;-73
2022/03/16 03:36:13;;;;;;;13.05;7.13;;;;;;;-4.54;50.34;101770.66;5072857;28;20055;-73
2022/03/16 03:38:38;;;;;;;15.85;7.72;;;;;;;-4.43;50.42;101790.84;5072401;28;20476;-72
2022/03/16 03:41:05;;;;;;;17.20;7.47;;;;;;;-4.42;51.04;101808.28;5071867;28;20043;-71
2022/03/16 03:43:30;;;;;;;17.13;7.75;;;;;;;-4.41;50.99;101805.69;5071498;28;20033;-71
2022/03/16 03:45:56;;;;;;;17.70;7.85;;;;;;;-4.43;50.95;101803.91;5037204;28;20036;-72
2022/03/16 03:48:21;;;;;;;14.80;7.45;;;;;;;-4.36;51.12;101814.47;5071828;28;20020;-71
2022/03/16 03:50:46;;;;;;;13.50;7.32;;;;;;;-4.32;50.83;101807.56;5054096;28;20473;-72
2022/03/16 03:53:12;;;;;;;13.95;7.43;;;;;;;-4.29;50.96;101812.81;5071405;28;20054;-72
2022/03/16 03:55:38;;;;;;;14.63;7.65;;;;;;;-4.25;50.78;101819.84;5071535;28;20505;-72
2022/03/16 03:58:03;;;;;;;16.90;8.93;;;;;;;-4.20;50.94;101804.22;5072647;28;20028;-71
2022/03/16 04:00:29;;;;;;;21.92;9.52;;;;;;;-4.13;50.44;101807.75;5072183;28;20028;-71
2022/03/16 04:02:54;;;;;;;19.77;8.88;;;;;;;-4.10;50.45;101802.56;5037412;28;20028;-71
2022/03/16 04:05:20;;;;;;;22.10;10.80;;;;;;;-3.91;49.73;101815.00;5054092;28;20123;-72
2022/03/16 04:07:46;;;;;;;26.75;11.43;;;;;;;-4.10;49.93;101765.94;5072079;28;20036;-71
2022/03/16 04:10:11;;;;;;;21.70;10.70;;;;;;;-3.84;49.54;101809.88;5070377;28;20032;-72
2022/03/16 04:12:38;;;;;;;20.08;10.65;;;;;;;-3.83;50.49;101812.50;5053194;28;20492;-72
2022/03/16 04:15:05;;;;;;;27.73;12.50;;;;;;;-3.81;49.53;101815.13;5053165;28;20441;-73
2022/03/16 04:17:30;;;;;;;25.85;10.90;;;;;;;-3.67;48.91;101816.16;5070615;28;20029;-71
2022/03/16 04:19:56;;;;;;;27.48;11.65;;;;;;;-3.55;49.21;101832.88;5071302;28;20025;-71
2022/03/16 04:22:21;;;;;;;26.27;11.50;;;;;;;-3.56;49.17;101821.50;5071226;28;20086;-65
2022/03/16 04:24:47;;;;;;;29.88;12.13;;;;;;;-3.29;48.72;101813.91;5052905;28;20423;-70
2022/03/16 04:27:12;;;;;;;24.17;11.38;;;;;;;-1.85;46.75;101832.25;5053064;28;20067;-71
2022/03/16 04:29:38;;;;;;;21.73;11.57;;;;;;;0.30;42.26;101818.00;5070736;28;20032;-73
2022/03/16 04:32:04;;;;;;;27.67;12.10;;;;;;;2.18;37.70;101818.00;5052474;28;20040;-72
2022/03/16 04:34:30;;;;;;;23.50;12.32;;;;;;;3.64;34.70;101826.19;5070548;28;20482;-70
2022/03/16 04:36:55;;;;;;;27.58;13.70;;;;;;;4.75;32.62;101822.94;5052545;28;20086;-69
2022/03/16 04:39:21;;;;;;;30.05;13.80;;;;;;;5.85;31.07;101827.13;5053426;28;20107;-71
2022/03/16 04:41:46;;;;;;;25.65;13.93;;;;;;;6.85;29.61;101822.38;5070749;28;20055;-71
2022/03/16 04:44:12;;;;;;;28.30;12.75;;;;;;;7.83;27.76;101811.88;5070577;28;20048;-70
2022/03/16 04:46:38;;;;;;;25.02;13.50;;;;;;;8.79;26.27;101819.78;5070727;28;20033;-72
2022/03/16 04:49:03;;;;;;;21.15;11.90;;;;;;;9.60;25.06;101818.09;5071027;28;20107;-71
2022/03/16 04:51:29;;;;;;;23.88;12.80;;;;;;;10.34;23.91;101829.03;5070733;28;20474;-71
2022/03/16 04:53:54;;;;;;;21.52;12.05;;;;;;;10.77;23.46;101836.84;5035905;28;20028;-71
2022/03/16 04:56:20;;;;;;;20.23;11.55;;;;;;;11.31;22.55;101831.44;5053405;28;20029;-72
2022/03/16 04:58:45;;;;;;;18.17;11.20;;;;;;;11.80;21.72;101828.94;5035965;28;20390;-73
2022/03/16 05:01:11;;;;;;;25.73;13.38;;;;;;;12.17;21.30;101817.09;5035792;28;20025;-74
2022/03/16 05:03:37;;;;;;;25.90;14.10;;;;;;;12.60;20.31;101794.13;5052831;28;20025;-73
2022/03/16 05:06:03;;;;;;;25.02;14.45;;;;;;;13.45;19.88;101825.91;5070980;28;20036;-71
2022/03/16 05:08:28;;;;;;;25.92;15.70;;;;;;;14.01;18.84;101815.28;5070157;28;20474;-71
2022/03/16 05:10:54;;;;;;;31.73;16.10;;;;;;;14.88;18.07;101830.41;5070558;28;20037;-72
2022/03/16 05:13:19;;;;;;;31.80;17.25;;;;;;;15.41;17.52;101829.56;5053122;28;20028;-72
2022/03/16 05:15:45;;;;;;;30.60;16.08;;;;;;;15.73;17.06;101829.16;5070684;28;20036;-73
2022/03/16 05:18:10;;;;;;;29.45;17.38;;;;;;;16.30;16.65;101829.63;5052440;28;20394;-74
2022/03/16 05:20:36;;;;;;;29.45;17.27;;;;;;;16.74;15.94;101819.19;5052680;28;20459;-73
2022/03/16 05:23:01;;;;;;;25.50;15.95;;;;;;;17.20;15.59;101834.66;5074644;28;20170;-72
2022/03/16 05:25:31;;;;;;;33.60;16.58;;;;;;;17.58;15.40;101835.38;5074958;28;20554;-71
2022/03/16 05:27:58;;;;;;;21.02;14.20;;;;;;;18.01;14.43;101830.25;5074166;28;20488;-73
2022/03/16 05:30:26;;;;;;;21.45;12.85;;;;;;;18.18;14.22;101826.19;5074363;28;20111;-73
2022/03/16 05:32:54;;;;;;;25.13;13.57;;;;;;;18.50;13.95;101837.13;5057262;28;20099;-72
2022/03/16 05:35:20;;;;;;;23.52;14.75;;;;;;;18.93;13.56;101831.81;5056494;28;20032;-71
2022/03/16 05:37:45;;;;;;;26.08;13.75;;;;;;;18.90;13.35;101835.63;5073746;28;20808;-71
2022/03/16 05:40:11;;;;;;;24.02;13.77;;;;;;;19.17;13.18;101839.78;5073769;28;20031;-71
2022/03/16 05:42:37;;;;;;;21.33;12.80;;;;;;;19.75;12.68;101846.56;5074252;28;20043;-71
2022/03/16 05:45:05;;;;;;;19.75;11.32;;;;;;;20.61;12.19;101847.19;5056550;28;20367;-71
2022/03/16 05:47:31;;;;;;;16.67;11.13;;;;;;;21.31;11.41;101843.50;5055411;28;20473;-69
2022/03/16 05:49:57;;;;;;;17.67;10.55;;;;;;;21.29;11.01;101805.53;5073503;28;20059;-64
2022/03/16 05:52:24;;;;;;;15.63;9.63;;;;;;;21.51;11.19;101847.91;5056484;28;20127;-71
2022/03/16 05:54:51;;;;;;;15.32;11.07;;;;;;;21.82;11.11;101848.72;5073982;28;20078;-71
2022/03/16 05:57:17;;;;;;;20.40;12.77;;;;;;;22.00;10.66;101843.38;5073496;28;20037;-71
2022/03/16 05:59:44;;;;;;;18.30;11.90;;;;;;;21.78;10.69;101837.28;5055693;28;20036;-72
2022/03/16 06:02:10;;;;;;;23.50;13.68;;;;;;;22.39;10.33;101847.78;5074379;28;20032;-73
2022/03/16 06:04:37;;;;;;;19.02;12.85;;;;;;;22.83;9.64;101830.69;5073581;28;20512;-72
2022/03/16 06:07:04;;;;;;;17.50;13.23;;;;;;;23.45;9.60;101849.00;5055383;28;20036;-72
2022/03/16 06:09:29;;;;;;;17.77;11.95;;;;;;;23.49;9.28;101855.88;5073371;28;20035;-72
2022/03/16 06:11:55;;;;;;;18.42;12.07;;;;;;;23.85;9.07;101861.22;5074653;28;20032;-71
2022/03/16 06:14:20;;;;;;;14.60;11.38;;;;;;;24.64;8.71;101841.06;5073397;28;20111;-71
2022/03/16 06:16:47;;;;;;;14.60;10.80;;;;;;;25.08;8.45;101853.63;5073293;28;20060;-72
2022/03/16 06:19:13;;;;;;;14.98;10.57;;;;;;;25.44;7.78;101822.25;5073192;28;20111;-72
2022/03/16 06:21:39;;;;;;;15.40;9.90;;;;;;;26.15;7.78;101862.72;5038868;28;20024;-71
2022/03/16 06:24:05;;;;;;;12.93;10.60;;;;;;;25.68;7.86;101853.44;5072730;28;20039;-73
2022/03/16 06:26:31;;;;;;;12.35;9.50;;;;;;;25.52;8.01;101857.91;5055122;28;20115;-71
2022/03/16 06:28:57;;;;;;;12.70;10.13;;;;;;;25.78;7.67;101856.84;5073406;28;20123;-72
2022/03/16 06:31:22;;;;;;;11.35;9.70;;;;;;;26.08;7.52;101851.63;5072921;28;20080;-72
2022/03/16 06:33:48;;;;;;;9.98;8.77;;;;;;;26.14;7.06;101864.63;5053936;28;20032;-70
2022/03/16 06:36:13;;;;;;;10.93;8.32;;;;;;;25.94;7.15;101851.31;5073412;28;20174;-71
2022/03/16 06:38:39;;;;;;;11.73;8.80;;;;;;;25.99;7.16;101820.59;5072776;28;20032;-74
2022/03/16 06:41:05;;;;;;;9.15;8.15;;;;;;;26.71;7.16;101867.28;5072592;28;20029;-74
2022/03/16 06:43:31;;;;;;;12.20;9.68;;;;;;;26.93;6.92;101865.59;5073275;28;20056;-71
2022/03/16 06:45:56;;;;;;;16.65;9.77;;;;;;;27.15;6.76;101861.16;5054752;28;20032;-72
2022/03/16 06:48:23;;;;;;;14.57;9.75;;;;;;;27.76;6.58;101868.50;5072359;28;20033;-72
2022/03/16 06:50:52;;;;;;;12.40;9.90;;;;;;;28.09;6.88;101872.78;5072776;28;20040;-73
2022/03/16 06:53:17;;;;;;;11.73;9.35;;;;;;;28.43;6.14;101868.56;5054750;28;20122;-73
2022/03/16 06:55:43;;;;;;;12.90;8.82;;;;;;;27.50;6.21;101858.75;5072406;28;20082;-74
2022/03/16 06:58:08;;;;;;;13.32;9.10;;;;;;;27.54;6.13;101870.28;5056034;28;20371;-72
2022/03/16 07:00:34;;;;;;;12.40;9.63;;;;;;;27.44;6.19;101867.78;5058615;28;20067;-72
2022/03/16 07:03:01;;;;;;;12.55;9.48;;;;;;;27.55;6.24;101877.50;5040496;28;20028;-73
2022/03/16 07:05:29;;;;;;;13.98;9.23;;;;;;;27.27;6.59;101882.69;5054929;28;20028;-67
2022/03/16 07:07:56;;;;;;;14.32;9.95;;;;;;;27.36;6.50;101879.69;5072570;28;20078;-67
2022/03/16 07:10:22;;;;;;;10.10;8.93;;;;;;;27.30;6.12;101891.44;5072475;28;20115;-71
2022/03/16 07:12:48;;;;;;;13.60;8.98;;;;;;;26.50;6.52;101886.09;5072361;28;20039;-72
2022/03/16 07:15:14;;;;;;;12.13;9.07;;;;;;;26.42;6.55;101860.59;5071975;28;20043;-73
2022/03/16 07:17:39;;;;;;;12.70;8.70;;;;;;;26.08;6.59;101879.91;5054496;28;20036;-72
2022/03/16 07:20:06;;;;;;;11.25;8.45;;;;;;;25.34;6.92;101880.88;5072477;28;20102;-71
2022/03/16 07:22:34;;;;;;;11.38;7.90;;;;;;;25.84;7.36;101886.34;5071652;28;20037;-68
2022/03/16 07:25:01;;;;;;;8.93;8.05;;;;;;;26.74;6.77;101881.50;5072072;28;20431;-73
2022/03/16 07:27:28;;;;;;;9.48;7.63;;;;;;;28.04;5.78;101883.53;5072317;28;20029;-72
2022/03/16 07:29:53;;;;;;;14.68;7.80;;;;;;;29.06;5.55;101878.22;5054665;28;20036;-72
2022/03/16 07:32:19;;;;;;;9.43;7.93;;;;;;;29.23;5.45;101870.50;5071604;28;20571;-71
2022/03/16 07:34:46;;;;;;;9.98;8.57;;;;;;;28.91;5.67;101878.25;5071440;28;20044;-72
2022/03/16 07:37:11;;;;;;;9.18;7.60;;;;;;;28.99;5.61;101874.50;5037368;28;20092;-69
2022/03/16 07:39:37;;;;;;;11.38;8.50;;;;;;;29.03;5.28;101870.31;5072068;28;20096;-70
2022/03/16 07:42:03;;;;;;;8.75;7.70;;;;;;;28.70;5.46;101873.56;5071518;28;20024;-66
2022/03/16 07:44:28;;;;;;;10.82;7.22;;;;;;;28.48;5.42;101873.50;5036582;28;20287;-69
2022/03/16 07:46:54;;;;;;;10.23;7.43;;;;;;;28.35;5.43;101879.72;5070270;28;20036;-68
2022/03/16 07:49:19;;;;;;;6.95;6.25;;;;;;;26.48;5.70;101866.19;5054094;28;20031;-71
2022/03/16 07:51:45;;;;;;;7.28;6.57;;;;;;;24.66;6.86;101877.34;5071507;28;20462;-71
2022/03/16 07:54:10;;;;;;;9.63;6.63;;;;;;;23.86;7.45;101868.41;5071348;28;20238;-70
2022/03/16 07:56:36;;;;;;;9.98;7.07;;;;;;;22.43;7.77;101871.88;5071475;28;20024;-72
2022/03/16 07:59:02;;;;;;;11.02;7.55;;;;;;;20.92;8.84;101853.44;5071987;28;20469;-72
2022/03/16 08:01:28;;;;;;;8.82;7.07;;;;;;;20.02;9.39;101855.19;5071034;28;20122;-74
2022/03/16 08:03:54;;;;;;;8.02;7.10;;;;;;;18.13;10.59;101879.94;5071373;28;20592;-72
2022/03/16 08:06:20;;;;;;;10.18;7.05;;;;;;;15.48;12.14;101880.31;5036664;28;20077;-72
2022/03/16 08:08:46;;;;;;;9.13;6.53;;;;;;;13.23;14.02;101867.53;5052925;28;20029;-69
2022/03/16 08:11:11;;;;;;;10.95;6.32;;;;;;;11.28;15.65;101887.06;5070969;28;20059;-72
2022/03/16 08:13:38;;;;;;;10.02;7.13;;;;;;;8.67;18.33;101864.72;5052996;28;20054;-71
2022/03/16 08:16:06;;;;;;;14.93;7.68;;;;;;;7.61;19.91;101889.97;5071836;28;20047;-71
2022/03/16 08:18:32;;;;;;;10.07;7.22;;;;;;;6.35;21.42;101877.16;5053146;28;20087;-70
2022/03/16 08:20:58;;;;;;;11.27;7.30;;;;;;;6.01;22.36;101883.44;5070843;28;20029;-73
2022/03/16 08:23:23;;;;;;;11.00;6.65;;;;;;;4.99;23.06;101863.91;5071328;28;20033;-71
2022/03/16 08:25:49;;;;;;;11.85;6.80;;;;;;;4.75;23.37;101891.94;5036072;28;20116;-70
2022/03/16 08:28:15;;;;;;;12.82;7.75;;;;;;;4.72;24.16;101892.84;5052222;28;20063;-72
2022/03/16 08:30:41;;;;;;;10.27;6.30;;;;;;;4.33;24.19;101903.41;5070616;28;20097;-71
2022/03/16 08:33:07;;;;;;;11.48;7.20;;;;;;;3.84;25.71;101897.34;5070437;28;20061;-70
2022/03/16 08:35:33;;;;;;;12.85;6.68;;;;;;;3.62;25.34;101902.16;5052430;28;20028;-70
2022/03/16 08:37:58;;;;;;;13.63;8.20;;;;;;;3.23;26.51;101901.06;5070808;28;20062;-70
2022/03/16 08:40:24;;;;;;;12.65;6.78;;;;;;;3.41;25.50;101905.16;5052870;28;20029;-72
2022/03/16 08:42:52;;;;;;;12.15;7.65;;;;;;;2.87;26.20;101867.22;5052182;28;20024;-70
2022/03/16 08:45:19;;;;;;;12.65;6.88;;;;;;;2.85;26.71;101905.16;5052775;28;20044;-71
2022/03/16 08:47:45;;;;;;;26.17;6.45;;;;;;;2.86;26.35;101906.91;5070881;28;20036;-70
2022/03/16 08:50:10;;;;;;;15.57;8.07;;;;;;;2.54;27.59;101898.56;5070104;28;20103;-71
2022/03/16 08:52:36;;;;;;;12.00;7.75;;;;;;;2.39;27.62;101886.41;5070817;28;20486;-73
2022/03/16 08:55:02;;;;;;;14.45;7.75;;;;;;;2.30;27.40;101838.94;5036542;28;20171;-71
2022/03/16 08:57:28;;;;;;;14.20;7.57;;;;;;;2.64;27.84;101878.13;5056615;28;20039;-70
2022/03/16 08:59:55;;;;;;;14.65;8.35;;;;;;;2.58;27.47;101894.09;5040059;28;20025;-69
2022/03/16 09:02:21;;;;;;;15.27;8.18;;;;;;;2.64;27.93;101880.78;5074873;28;20094;-71
2022/03/16 09:04:46;;;;;;;12.88;8.35;;;;;;;2.75;27.29;101887.69;5074917;28;20103;-73
2022/03/16 09:07:12;;;;;;;14.07;7.85;;;;;;;2.81;27.19;101898.19;5056798;28;20035;-70
2022/03/16 09:09:39;;;;;;;15.82;6.80;;;;;;;2.72;27.30;101854.22;5074510;28;20123;-66
2022/03/16 09:12:05;;;;;;;14.07;8.15;;;;;;;2.89;27.24;101880.41;5057009;28;20116;-70
2022/03/16 09:14:30;;;;;;;14.48;7.40;;;;;;;2.74;28.91;101884.16;5023992;28;20111;-71
2022/03/16 09:16:56;;;;;;;11.32;7.05;;;;;;;2.78;27.51;101892.94;5056670;28;20123;-71
2022/03/16 09:19:21;;;;;;;12.20;6.95;;;;;;;2.89;27.17;101851.31;5056034;28;20378;-72
2022/03/16 09:21:48;;;;;;;19.10;8.13;;;;;;;2.75;27.97;101909.72;5056261;28;20024;-70
2022/03/16 09:24:15;;;;;;;12.95;7.88;;;;;;;2.60;27.93;101910.81;5057040;28;20354;-71
2022/03/16 09:26:41;;;;;;;17.63;8.18;;;;;;;2.51;28.34;101884.50;5074287;28;20036;-69
2022/03/16 09:29:08;;;;;;;12.10;6.95;;;;;;;2.44;27.58;101895.16;5056563;28;20067;-70
2022/03/16 09:31:38;;;;;;;15.95;7.65;;;;;;;2.20;28.75;101880.47;5073876;28;20086;-70
2022/03/16 09:34:07;;;;;;;12.75;7.53;;;;;;;2.08;28.94;101875.38;5074408;28;20397;-71
2022/03/16 09:36:37;;;;;;;12.93;6.78;;;;;;;2.25;28.69;101901.56;5056723;28;20119;-69
2022/03/16 09:39:04;;;;;;;13.00;6.95;;;;;;;2.44;28.47;101874.00;5074054;28;20465;-70
2022/03/16 09:41:29;;;;;;;15.85;8.55;;;;;;;2.33;28.43;101883.00;5055961;28;20036;-70
2022/03/16 09:43:55;;;;;;;15.77;7.55;;;;;;;2.04;29.09;101876.28;5039510;28;20028;-71
2022/03/16 09:46:31;;;;;;;11.13;6.78;;;;;;;2.40;28.24;101882.00;5073786;28;20466;-69
2022/03/16 09:48:57;;;;;;;16.23;7.30;;;;;;;2.29;28.37;101880.38;5073841;28;20122;-71
2022/03/16 09:51:22;;;;;;;16.70;7.78;;;;;;;2.35;28.79;101868.84;5055503;28;20032;-71
2022/03/16 09:53:48;;;;;;;13.15;7.88;;;;;;;2.15;29.24;101871.75;5074285;28;20059;-71
2022/03/16 09:56:14;;;;;;;14.85;6.47;;;;;;;2.26;28.37;101885.69;5073624;28;20432;-71
2022/03/16 09:58:43;;;;;;;11.50;6.30;;;;;;;2.36;28.03;101870.59;5055832;28;20025;-69
2022/03/16 10:01:09;;;;;;;12.23;6.75;;;;;;;2.24;28.76;101889.25;5073665;28;20024;-71
2022/03/16 10:03:35;;;;;;;11.95;5.85;;;;;;;2.47;27.53;101880.16;5073303;28;20054;-68
2022/03/16 10:06:01;;;;;;;9.13;5.63;;;;;;;2.39;27.88;101901.41;5073400;28;20051;-71
2022/03/16 10:08:34;;;;;;;8.55;5.60;;;;;;;1.96;28.27;101882.53;5053794;28;20032;-70
2022/03/16 10:14:06;;;;;;;7.15;4.65;;;;;;;1.85;27.94;101877.38;5073384;28;20066;-72
2022/03/16 10:19:33;;;;;;;10.80;5.28;;;;;;;1.71;29.10;101881.94;4975693;28;20035;-70
2022/03/16 10:22:04;;;;;;;10.48;4.97;;;;;;;2.04;28.36;101884.19;5038345;28;20059;-71
2022/03/16 10:24:30;;;;;;;13.10;5.65;;;;;;;1.92;28.83;101890.50;5054820;28;20486;-71
2022/03/16 10:26:58;;;;;;;8.40;4.38;;;;;;;2.03;28.08;101879.81;5055265;28;20035;-71
2022/03/16 10:29:26;;;;;;;7.97;5.32;;;;;;;1.79;29.05;101885.38;5072816;28;20466;-70
2022/03/16 10:32:03;;;;;;;9.40;5.22;;;;;;;1.47;28.72;101852.25;5072697;28;20498;-71
2022/03/16 10:34:29;;;;;;;6.20;3.90;;;;;;;1.61;28.06;101880.25;5055409;28;20252;-69
2022/03/16 10:36:59;;;;;;;8.45;4.15;;;;;;;1.60;28.31;101883.78;5054841;28;20040;-71
2022/03/16 10:39:37;;;;;;;12.57;5.53;;;;;;;1.65;28.05;101892.53;5038569;28;20106;-70
2022/03/16 10:47:57;;;;;;;8.43;4.82;;;;;;;1.75;28.69;101878.38;5054318;28;20029;-70
2022/03/16 10:50:23;;;;;;;7.63;4.63;;;;;;;1.90;28.25;101879.97;5072897;28;20032;-69
2022/03/16 10:52:50;;;;;;;15.43;5.82;;;;;;;2.07;28.28;101885.03;5055320;28;20033;-72
2022/03/16 10:55:20;;;;;;;11.20;4.97;;;;;;;2.06;27.49;101877.16;5054371;28;20024;-71
2022/03/16 10:57:50;;;;;;;8.98;5.03;;;;;;;2.03;28.55;101866.59;5072462;28;20028;-70
2022/03/16 11:00:17;;;;;;;11.63;5.97;;;;;;;2.04;28.81;101869.22;5072911;28;20413;-71
2022/03/16 11:02:45;;;;;;;7.82;4.20;;;;;;;1.61;27.81;101757.06;5072800;28;20021;-71
2022/03/16 11:05:10;;;;;;;11.07;5.50;;;;;;;1.85;28.12;101816.63;5072396;28;20474;-72
2022/03/16 11:07:37;;;;;;;12.55;4.70;;;;;;;2.23;27.38;101867.22;5054765;28;20039;-70
2022/03/16 11:10:04;;;;;;;7.28;4.97;;;;;;;2.24;27.80;101882.19;5072932;28;20029;-72
2022/03/16 11:15:18;;;;;;;7.80;5.00;;;;;;;2.12;28.06;101867.34;5072097;28;20078;-69
2022/03/16 11:17:45;;;;;;;9.07;5.10;;;;;;;2.00;28.16;101857.81;5072899;28;20024;-71
2022/03/16 11:20:11;;;;;;;7.60;5.18;;;;;;;1.96;28.99;101852.59;5072424;28;20535;-71
2022/03/16 11:24:16;;;;;;;9.63;5.70;;;;;;;2.03;28.71;101856.03;5054363;28;20035;-72
2022/03/16 11:25:54;;;;;;;8.20;5.10;;;;;;;2.17;29.00;101854.09;5071637;28;20052;-71
2022/03/16 11:28:33;;;;;;;11.13;5.57;;;;;;;2.27;28.84;101857.50;5054675;28;20037;-70
2022/03/16 11:31:00;;;;;;;9.45;5.47;;;;;;;2.22;28.79;101814.41;5072430;28;20033;-70
2022/03/16 11:33:26;;;;;;;12.10;5.88;;;;;;;2.51;28.64;101858.91;5071753;28;20395;-71